Disclaimer

Please do not use the information listed here in-flight or in-navigation, as they are not provided to us by the airports but are provided by volunteers, so they might be outdated.

Search


Regions


Airport information page

Radio informations:
Tower (TWR) - 118.3 MHz

Airport informations:
Latitude: 39° 27' 18.98" N
Longitude: 031° 07' 52.90" W
Elevation: 112 feet - 34 meters
Operating hours: N/A
Operating agency: Civil government, landing fees and diplomatic clearance may be required
Timezone: UTC-1(0 DT) - Last Sunday in March to last Sunday in October
Fuel: N/A

Runway information:
18/36 - 4593 x 98 feet< - >1400 x 30 meters

Recent METARs:
LPFL 161000Z VRB05KT 9999 FEW030 15/07 Q1022
LPFL 161030Z 16007G18KT 080V210 9999 FEW030 15/08 Q1022
LPFL 161100Z 17008KT 110V250 9999 FEW030 16/07 Q1022

Airport on the map: